createdAt,value
2022-12-19T00:02:04.058Z,44.80
2022-12-19T00:04:39.116Z,34.70
2022-12-19T00:07:09.775Z,29.70
2022-12-19T00:09:41.368Z,34.35
2022-12-19T00:12:19.176Z,34.18
2022-12-19T00:14:49.969Z,33.10
2022-12-19T00:17:23.979Z,29.90
2022-12-19T00:19:54.676Z,40.80
2022-12-19T00:22:25.421Z,36.50
2022-12-19T00:24:56.131Z,34.23
2022-12-19T00:27:28.932Z,33.88
2022-12-19T00:29:59.821Z,36.93
2022-12-19T00:32:30.485Z,39.40
2022-12-19T00:35:01.225Z,32.90
2022-12-19T00:37:32.502Z,38.42
2022-12-19T00:40:03.168Z,38.85
2022-12-19T00:42:33.884Z,32.58
2022-12-19T00:45:04.570Z,31.35
2022-12-19T00:47:35.278Z,32.93
2022-12-19T00:50:07.061Z,32.73
2022-12-19T00:52:37.718Z,26.82
2022-12-19T00:55:19.257Z,29.85
2022-12-19T00:57:47.670Z,35.05
2022-12-19T01:00:19.648Z,37.58
2022-12-19T01:02:51.735Z,37.60
2022-12-19T01:05:23.931Z,30.92
2022-12-19T01:07:54.901Z,27.52
2022-12-19T01:10:25.551Z,26.68
2022-12-19T01:12:56.253Z,39.33
2022-12-19T01:15:26.896Z,32.23
2022-12-19T01:17:57.603Z,26.90
2022-12-19T01:20:29.696Z,28.98
2022-12-19T01:23:01.310Z,39.40
2022-12-19T01:25:32.087Z,30.27
2022-12-19T01:28:04.259Z,31.48
2022-12-19T01:30:35.418Z,38.45
2022-12-19T01:33:06.310Z,36.50
2022-12-19T01:35:37.631Z,29.60
2022-12-19T01:38:08.905Z,28.87
2022-12-19T01:40:44.784Z,32.23
2022-12-19T01:45:50.832Z,30.35
2022-12-19T01:48:24.049Z,38.28
2022-12-19T01:51:06.156Z,34.35
2022-12-19T01:53:48.331Z,27.52
2022-12-19T01:56:16.382Z,30.27
2022-12-19T01:58:49.839Z,26.57
2022-12-19T02:01:21.690Z,30.40
2022-12-19T02:03:53.726Z,27.62
2022-12-19T02:06:24.672Z,23.87
2022-12-19T02:08:58.163Z,24.77
2022-12-19T02:11:29.213Z,29.32
2022-12-19T02:14:02.397Z,26.25
2022-12-19T02:16:44.237Z,30.68
2022-12-19T02:19:26.207Z,25.00
2022-12-19T02:22:02.236Z,31.48
2022-12-19T02:25:09.343Z,32.15
2022-12-19T02:28:03.517Z,32.80
2022-12-19T02:31:08.177Z,30.80
2022-12-19T02:33:56.916Z,30.00
2022-12-19T02:36:45.491Z,35.63
2022-12-19T02:39:36.422Z,28.70
2022-12-19T02:42:10.029Z,31.95
2022-12-19T02:44:44.597Z,32.30
2022-12-19T02:47:16.882Z,34.08
2022-12-19T02:49:53.852Z,28.02
2022-12-19T02:52:27.211Z,32.65
2022-12-19T02:55:00.727Z,32.05
2022-12-19T02:57:43.320Z,28.12
2022-12-19T03:00:17.848Z,32.03
2022-12-19T03:03:12.400Z,33.65
2022-12-19T03:06:05.829Z,33.75
2022-12-19T03:08:48.899Z,28.60
2022-12-19T03:11:39.881Z,27.75
2022-12-19T03:14:16.558Z,32.85
2022-12-19T03:16:47.933Z,24.92
2022-12-19T03:19:20.401Z,34.30
2022-12-19T03:21:53.901Z,27.07
2022-12-19T03:24:25.546Z,29.52
2022-12-19T03:27:05.027Z,28.47
2022-12-19T03:29:41.555Z,30.72
2022-12-19T03:32:15.486Z,31.23
2022-12-19T03:34:53.050Z,31.87
2022-12-19T03:37:26.629Z,31.30
2022-12-19T03:40:00.052Z,26.27
2022-12-19T03:42:50.449Z,28.95
2022-12-19T03:45:26.859Z,24.12
2022-12-19T03:48:00.830Z,25.53
2022-12-19T03:50:34.275Z,19.92
2022-12-19T03:53:25.906Z,26.73
2022-12-19T03:56:02.624Z,21.05
2022-12-19T03:58:38.894Z,25.25
2022-12-19T04:01:11.003Z,25.85
2022-12-19T04:03:42.231Z,25.68
2022-12-19T04:06:23.383Z,25.77
2022-12-19T04:08:54.431Z,27.60
2022-12-19T04:11:30.233Z,26.30
2022-12-19T04:14:03.556Z,24.00
2022-12-19T04:16:46.024Z,30.52
2022-12-19T04:19:22.546Z,24.27
2022-12-19T04:22:01.702Z,24.12
2022-12-19T04:24:36.877Z,21.55
2022-12-19T04:27:12.424Z,21.50
2022-12-19T04:29:44.165Z,21.70
2022-12-19T04:32:15.958Z,30.30
2022-12-19T04:34:47.709Z,23.07
2022-12-19T04:37:18.847Z,26.62
2022-12-19T04:39:49.786Z,23.20
2022-12-19T04:42:20.458Z,26.23
2022-12-19T04:44:52.045Z,23.50
2022-12-19T04:47:23.431Z,17.42
2022-12-19T04:49:57.292Z,23.27
2022-12-19T04:52:32.340Z,18.62
2022-12-19T04:55:03.011Z,14.53
2022-12-19T04:57:37.139Z,18.73
2022-12-19T05:00:10.456Z,19.48
2022-12-19T05:05:19.452Z,14.28
2022-12-19T05:08:03.221Z,16.48
2022-12-19T05:10:34.475Z,18.67
2022-12-19T05:13:23.767Z,19.87
2022-12-19T05:16:03.073Z,18.90
2022-12-19T05:18:36.093Z,13.90
2022-12-19T05:21:20.102Z,17.87
2022-12-19T05:24:01.846Z,22.22
2022-12-19T05:26:40.482Z,15.90
2022-12-19T05:29:13.721Z,14.65
2022-12-19T05:31:48.033Z,13.58
2022-12-19T05:34:19.198Z,17.87
2022-12-19T05:36:50.007Z,20.32
2022-12-19T05:39:25.292Z,19.15
2022-12-19T05:41:56.186Z,14.18
2022-12-19T05:44:28.107Z,15.60
2022-12-19T05:47:01.907Z,17.40
2022-12-19T05:49:32.721Z,16.05
2022-12-19T05:52:03.818Z,15.25
2022-12-19T05:54:35.307Z,15.13
2022-12-19T05:57:07.164Z,16.80
2022-12-19T05:59:38.444Z,19.30
2022-12-19T06:02:10.874Z,18.42
2022-12-19T06:04:43.657Z,15.13
2022-12-19T06:07:20.741Z,13.83
2022-12-19T06:09:50.950Z,16.57
2022-12-19T06:12:23.580Z,13.38
2022-12-19T06:14:54.758Z,15.75
2022-12-19T06:17:26.078Z,13.58
2022-12-19T06:19:57.189Z,15.80
2022-12-19T06:22:34.627Z,18.45
2022-12-19T06:25:05.406Z,15.95
2022-12-19T06:27:36.578Z,16.90
2022-12-19T06:30:08.662Z,17.45
2022-12-19T06:32:41.351Z,18.07
2022-12-19T06:35:12.325Z,15.93
2022-12-19T06:37:57.911Z,13.20
2022-12-19T06:40:46.550Z,12.78
2022-12-19T06:43:18.650Z,16.52
2022-12-19T06:45:49.439Z,15.03
2022-12-19T06:48:26.640Z,11.73
2022-12-19T06:51:03.321Z,16.35
2022-12-19T06:53:35.880Z,15.45
2022-12-19T06:56:12.773Z,13.03
2022-12-19T06:58:46.005Z,17.02
2022-12-19T07:01:29.619Z,17.10
2022-12-19T07:06:53.326Z,15.45
2022-12-19T07:09:30.728Z,12.90
2022-12-19T07:12:01.348Z,13.88
2022-12-19T07:14:34.986Z,17.90
2022-12-19T07:17:09.328Z,17.07
2022-12-19T07:19:42.441Z,20.30
2022-12-19T07:22:31.371Z,16.57
2022-12-19T07:25:10.911Z,14.45
2022-12-19T07:27:48.756Z,15.00
2022-12-19T07:30:29.152Z,14.33
2022-12-19T07:33:04.629Z,13.05
2022-12-19T07:35:38.384Z,13.35
2022-12-19T07:38:13.086Z,11.70
2022-12-19T07:43:56.535Z,13.50
2022-12-19T07:46:31.033Z,16.40
2022-12-19T07:49:04.700Z,16.90
2022-12-19T07:51:47.654Z,15.40
2022-12-19T07:54:20.682Z,14.60
2022-12-19T07:57:02.051Z,15.63
2022-12-19T07:59:39.523Z,17.87
2022-12-19T08:05:00.820Z,14.87
2022-12-19T08:10:30.904Z,15.40
2022-12-19T08:13:06.396Z,14.87
2022-12-19T08:15:40.032Z,15.13
2022-12-19T08:18:21.195Z,15.32
2022-12-19T08:21:00.605Z,14.83
2022-12-19T08:23:32.749Z,21.02
2022-12-19T08:26:07.857Z,15.10
2022-12-19T08:28:42.791Z,16.45
2022-12-19T08:31:24.204Z,17.02
2022-12-19T08:33:58.617Z,15.48
2022-12-19T08:36:42.600Z,18.80
2022-12-19T08:39:14.465Z,17.02
2022-12-19T08:41:47.207Z,15.95
2022-12-19T08:44:20.519Z,16.80
2022-12-19T08:47:01.768Z,17.30
2022-12-19T08:52:28.280Z,17.02
2022-12-19T08:55:05.522Z,13.85
2022-12-19T08:57:37.679Z,12.95
2022-12-19T09:00:10.584Z,12.80
2022-12-19T09:06:00.676Z,12.68
2022-12-19T09:08:16.418Z,13.45
2022-12-19T09:11:00.019Z,13.22
2022-12-19T09:13:39.450Z,15.23
2022-12-19T09:16:12.611Z,15.30
2022-12-19T09:18:51.320Z,17.60
2022-12-19T09:21:32.162Z,14.28
2022-12-19T09:26:54.895Z,13.90
2022-12-19T09:35:09.350Z,15.60
2022-12-19T09:37:56.616Z,19.60
2022-12-19T09:43:26.651Z,16.07
2022-12-19T09:46:21.372Z,14.60
2022-12-19T09:48:55.332Z,14.07
2022-12-19T09:51:49.893Z,18.73
2022-12-19T09:54:36.705Z,21.95
2022-12-19T09:57:12.843Z,23.02
2022-12-19T09:59:49.966Z,22.98
2022-12-19T10:02:39.701Z,23.22
2022-12-19T10:05:29.485Z,24.40
2022-12-19T10:08:07.608Z,24.45
2022-12-19T10:12:46.409Z,16.97
2022-12-19T10:13:13.054Z,21.60
2022-12-19T10:15:59.834Z,24.05
2022-12-19T10:18:43.219Z,30.68
2022-12-19T10:22:07.590Z,31.23
2022-12-19T10:24:15.499Z,29.72
2022-12-19T10:26:53.013Z,32.55
2022-12-19T10:29:55.166Z,28.07
2022-12-19T10:32:34.413Z,25.80
2022-12-19T10:35:07.494Z,38.58
2022-12-19T10:37:49.345Z,27.17
2022-12-19T10:40:32.074Z,23.75
2022-12-19T10:43:27.276Z,22.93
2022-12-19T10:48:30.515Z,22.45
2022-12-19T10:51:02.122Z,27.32
2022-12-19T10:53:37.801Z,24.72
2022-12-19T10:56:15.849Z,25.92
2022-12-19T10:58:47.072Z,24.87
2022-12-19T11:01:26.553Z,28.60
2022-12-19T11:04:19.470Z,23.10
2022-12-19T11:06:53.722Z,25.55
2022-12-19T11:09:32.791Z,22.13
2022-12-19T11:14:44.070Z,23.50
2022-12-19T11:18:33.963Z,24.55
2022-12-19T11:27:03.504Z,26.15
2022-12-19T11:29:32.982Z,24.77
2022-12-19T11:29:38.938Z,27.93
2022-12-19T11:30:38.266Z,33.18
2022-12-19T11:30:38.844Z,24.72
2022-12-19T11:33:44.224Z,31.65
2022-12-19T11:36:35.422Z,26.62
2022-12-19T11:39:07.530Z,29.60
2022-12-19T11:41:43.542Z,28.20
2022-12-19T11:44:36.134Z,27.22
2022-12-19T11:47:29.265Z,28.05
2022-12-19T11:50:17.547Z,25.95
2022-12-19T11:53:04.402Z,28.62
2022-12-19T11:58:05.769Z,29.60
2022-12-19T12:00:37.091Z,30.05
2022-12-19T12:04:00.366Z,27.25
2022-12-19T12:06:23.282Z,28.98
2022-12-19T12:12:33.463Z,30.25
2022-12-19T12:24:26.263Z,32.93
2022-12-19T12:31:04.287Z,36.33
2022-12-19T12:31:09.987Z,30.82
2022-12-19T12:31:16.209Z,32.28
2022-12-19T12:31:17.509Z,29.75
2022-12-19T12:31:51.537Z,33.67
2022-12-19T12:35:28.682Z,36.55
2022-12-19T12:35:30.671Z,26.95
2022-12-19T12:39:39.718Z,35.52
2022-12-19T12:42:24.782Z,30.95
2022-12-19T12:44:57.719Z,29.60
2022-12-19T12:47:31.389Z,28.62
2022-12-19T12:50:08.822Z,38.13
2022-12-19T12:52:42.787Z,28.87
2022-12-19T12:55:21.955Z,28.98
2022-12-19T12:57:52.829Z,29.23
2022-12-19T13:00:26.319Z,35.28
2022-12-19T13:03:08.990Z,39.00
2022-12-19T13:06:09.750Z,36.73
2022-12-19T13:08:51.606Z,39.03
2022-12-19T13:11:46.180Z,31.75
2022-12-19T13:14:38.478Z,41.92
2022-12-19T13:17:14.054Z,37.85
2022-12-19T13:20:15.689Z,36.58
2022-12-19T13:22:49.240Z,40.03
2022-12-19T13:25:41.461Z,41.50
2022-12-19T13:28:27.051Z,41.00
2022-12-19T13:31:21.472Z,38.90
2022-12-19T13:33:56.520Z,39.70
2022-12-19T13:39:52.181Z,34.50
2022-12-19T13:42:47.715Z,38.38
2022-12-19T13:45:30.279Z,38.35
2022-12-19T13:48:03.178Z,44.45
2022-12-19T13:50:39.594Z,32.33
2022-12-19T13:53:15.803Z,43.50
2022-12-19T13:55:47.500Z,42.90
2022-12-19T14:01:28.038Z,34.63
2022-12-19T14:04:02.639Z,33.05
2022-12-19T14:06:48.620Z,38.40
2022-12-19T14:11:27.380Z,37.20
2022-12-19T14:13:49.956Z,32.28
2022-12-19T14:15:13.983Z,29.27
2022-12-19T14:17:48.661Z,31.50
2022-12-19T14:21:14.865Z,34.45
2022-12-19T14:23:03.238Z,33.05
2022-12-19T14:28:21.571Z,36.58
2022-12-19T14:28:30.991Z,37.50
2022-12-19T14:31:04.467Z,30.92
2022-12-19T14:34:04.161Z,36.42
2022-12-19T14:36:23.563Z,34.27
2022-12-19T14:39:27.281Z,35.05
2022-12-19T14:41:47.270Z,37.48
2022-12-19T14:52:08.592Z,33.70
2022-12-19T14:53:51.676Z,31.40
2022-12-19T14:54:06.518Z,35.68
2022-12-19T14:54:29.933Z,42.43
2022-12-19T14:56:16.097Z,36.08
2022-12-19T14:58:54.699Z,35.13
2022-12-19T15:01:07.972Z,40.23
2022-12-19T15:03:15.902Z,32.67
2022-12-19T15:05:52.797Z,32.83
2022-12-19T15:10:07.482Z,33.25
2022-12-19T15:11:50.628Z,38.95
2022-12-19T15:14:54.922Z,36.00
2022-12-19T15:16:44.165Z,41.73
2022-12-19T15:19:16.031Z,37.10
2022-12-19T15:21:48.512Z,35.50
2022-12-19T15:24:20.512Z,31.97
2022-12-19T15:26:56.239Z,37.13
2022-12-19T15:29:28.587Z,35.38
2022-12-19T15:32:09.642Z,34.92
2022-12-19T15:34:48.696Z,36.55
2022-12-19T15:37:16.495Z,41.88
2022-12-19T15:39:48.188Z,35.80
2022-12-19T15:42:23.414Z,32.38
2022-12-19T15:44:56.850Z,36.93
2022-12-19T15:47:39.101Z,38.53
2022-12-19T15:50:29.067Z,41.40
2022-12-19T15:53:02.037Z,44.18
2022-12-19T15:55:33.861Z,43.10
2022-12-19T15:58:08.047Z,39.65
2022-12-19T16:00:43.448Z,41.68
2022-12-19T16:03:24.898Z,46.18
2022-12-19T16:05:49.700Z,37.90
2022-12-19T16:08:22.522Z,38.15
2022-12-19T16:11:01.400Z,39.60
2022-12-19T16:13:30.849Z,36.73
2022-12-19T16:16:07.953Z,38.23
2022-12-19T16:18:37.637Z,37.98
2022-12-19T16:21:09.840Z,43.20
2022-12-19T16:23:44.107Z,39.60
2022-12-19T16:26:36.513Z,38.28
2022-12-19T16:29:07.743Z,39.18
2022-12-19T16:31:40.457Z,45.25
2022-12-19T16:34:19.482Z,43.13
2022-12-19T16:36:51.928Z,45.15
2022-12-19T16:39:25.586Z,48.13
2022-12-19T16:41:56.745Z,46.83
2022-12-19T16:44:29.995Z,48.02
2022-12-19T16:47:06.856Z,53.73
2022-12-19T16:49:41.205Z,54.05
2022-12-19T16:52:12.515Z,57.48
2022-12-19T16:54:44.856Z,47.13
2022-12-19T16:57:25.928Z,54.18
2022-12-19T16:59:57.018Z,53.73
2022-12-19T17:02:45.348Z,55.08
2022-12-19T17:05:25.469Z,50.23
2022-12-19T17:07:56.701Z,56.53
2022-12-19T17:10:33.109Z,46.42
2022-12-19T17:13:05.743Z,47.20
2022-12-19T17:15:38.522Z,49.15
2022-12-19T17:18:18.090Z,55.20
2022-12-19T17:20:50.385Z,53.50
2022-12-19T17:23:25.783Z,49.40
2022-12-19T17:25:56.879Z,46.75
2022-12-19T17:28:27.929Z,42.58
2022-12-19T17:31:02.922Z,46.63
2022-12-19T17:33:36.433Z,48.68
2022-12-19T17:36:08.912Z,46.28
2022-12-19T17:38:39.970Z,44.33
2022-12-19T17:41:13.356Z,44.00
2022-12-19T17:43:44.454Z,39.92
2022-12-19T17:46:22.952Z,47.60
2022-12-19T17:48:55.590Z,45.40
2022-12-19T17:51:26.651Z,41.60
2022-12-19T17:53:57.725Z,36.63
2022-12-19T17:56:28.783Z,38.92
2022-12-19T17:59:03.017Z,41.15
2022-12-19T18:01:36.135Z,37.40
2022-12-19T18:04:07.646Z,37.23
2022-12-19T18:06:38.713Z,36.85
2022-12-19T18:09:11.518Z,36.05
2022-12-19T18:11:42.603Z,40.38
2022-12-19T18:14:13.684Z,36.55
2022-12-19T18:16:45.743Z,37.85
2022-12-19T18:19:25.684Z,34.95
2022-12-19T18:21:57.145Z,36.50
2022-12-19T18:24:31.372Z,37.73
2022-12-19T18:27:02.440Z,42.88
2022-12-19T18:29:36.475Z,39.10
2022-12-19T18:32:10.580Z,37.13
2022-12-19T18:34:41.751Z,36.25
2022-12-19T18:37:15.156Z,39.95
2022-12-19T18:39:46.232Z,32.88
2022-12-19T18:42:24.725Z,37.70
2022-12-19T18:44:55.853Z,35.78
2022-12-19T18:47:27.548Z,36.35
2022-12-19T18:50:00.151Z,34.00
2022-12-19T18:52:31.269Z,31.52
2022-12-19T18:55:02.280Z,36.25
2022-12-19T18:57:33.430Z,34.00
2022-12-19T19:00:04.717Z,29.72
2022-12-19T19:02:36.200Z,35.38
2022-12-19T19:05:09.697Z,37.93
2022-12-19T19:07:40.767Z,33.55
2022-12-19T19:10:30.553Z,35.55
2022-12-19T19:13:06.596Z,32.88
2022-12-19T19:15:36.468Z,34.92
2022-12-19T19:18:09.880Z,34.40
2022-12-19T19:20:43.419Z,34.80
2022-12-19T19:23:15.712Z,37.38
2022-12-19T19:25:47.363Z,35.10
2022-12-19T19:28:18.649Z,41.98
2022-12-19T19:30:49.799Z,40.12
2022-12-19T19:33:23.701Z,38.95
2022-12-19T19:35:57.078Z,45.65
2022-12-19T19:38:28.452Z,38.38
2022-12-19T19:40:59.805Z,45.10
2022-12-19T19:43:32.340Z,36.73
2022-12-19T19:46:04.257Z,39.80
2022-12-19T19:48:35.344Z,43.40
2022-12-19T19:51:07.096Z,47.55
2022-12-19T19:53:38.150Z,38.73
2022-12-19T19:56:10.039Z,44.60
2022-12-19T19:58:41.115Z,43.02
2022-12-19T20:01:14.054Z,44.33
2022-12-19T20:03:45.937Z,41.63
2022-12-19T20:06:18.307Z,44.38
2022-12-19T20:08:49.393Z,43.78
2022-12-19T20:11:21.586Z,42.43
2022-12-19T20:13:52.844Z,42.75
2022-12-19T20:16:24.209Z,39.92
2022-12-19T20:18:56.101Z,39.55
2022-12-19T20:21:27.172Z,40.20
2022-12-19T20:23:58.724Z,38.05
2022-12-19T20:26:29.820Z,46.90
2022-12-19T20:29:00.888Z,39.88
2022-12-19T20:31:32.500Z,37.93
2022-12-19T20:34:03.752Z,37.98
2022-12-19T20:36:35.777Z,39.20
2022-12-19T20:39:07.363Z,40.15
2022-12-19T20:41:38.412Z,41.40
2022-12-19T20:44:09.497Z,43.40
2022-12-19T20:46:40.548Z,47.45
2022-12-19T20:49:11.685Z,44.80
2022-12-19T20:51:42.854Z,44.30
2022-12-19T20:54:14.314Z,51.40
2022-12-19T20:56:45.375Z,52.13
2022-12-19T20:59:16.478Z,53.65
2022-12-19T21:01:47.665Z,59.13
2022-12-19T21:04:18.970Z,49.05
2022-12-19T21:06:50.173Z,51.05
2022-12-19T21:09:21.221Z,50.85
2022-12-19T21:11:52.317Z,48.08
2022-12-19T21:14:23.325Z,42.08
2022-12-19T21:16:55.392Z,48.23
2022-12-19T21:19:26.424Z,44.85
2022-12-19T21:21:59.111Z,42.53
2022-12-19T21:24:30.496Z,49.93
2022-12-19T21:27:01.640Z,47.67
2022-12-19T21:29:32.710Z,46.65
2022-12-19T21:32:03.850Z,47.80
2022-12-19T21:34:35.020Z,48.25
2022-12-19T21:37:05.284Z,57.00
2022-12-19T21:39:36.356Z,57.35
2022-12-19T21:42:07.603Z,51.60
2022-12-19T21:44:38.750Z,53.85
2022-12-19T21:47:09.862Z,47.25
2022-12-19T21:49:52.199Z,53.38
2022-12-19T21:52:23.315Z,47.45
2022-12-19T21:54:54.396Z,53.50
2022-12-19T21:57:27.400Z,56.08
2022-12-19T21:59:58.515Z,51.48
2022-12-19T22:02:29.687Z,50.75
2022-12-19T22:05:00.883Z,50.30
2022-12-19T22:07:32.320Z,50.73
2022-12-19T22:10:03.481Z,48.20
2022-12-19T22:12:34.511Z,53.08
2022-12-19T22:15:05.690Z,45.55
2022-12-19T22:17:36.837Z,47.95
2022-12-19T22:20:10.170Z,40.60
2022-12-19T22:22:41.262Z,45.60
2022-12-19T22:25:12.878Z,51.70
2022-12-19T22:27:43.907Z,54.33
2022-12-19T22:30:15.421Z,56.50
2022-12-19T22:32:46.545Z,54.00
2022-12-19T22:35:18.153Z,49.00
2022-12-19T22:37:49.338Z,49.50
2022-12-19T22:40:20.651Z,50.65
2022-12-19T22:42:51.739Z,53.55
2022-12-19T22:45:22.806Z,54.23
2022-12-19T22:47:53.859Z,48.83
2022-12-19T22:50:24.907Z,49.65
2022-12-19T22:52:56.017Z,52.27
2022-12-19T22:55:27.078Z,57.33
2022-12-19T22:57:59.917Z,55.65
2022-12-19T23:00:31.503Z,54.03
2022-12-19T23:03:02.931Z,47.85
2022-12-19T23:05:34.145Z,61.60
2022-12-19T23:08:05.431Z,52.53
2022-12-19T23:10:36.465Z,46.70
2022-12-19T23:13:07.519Z,49.63
2022-12-19T23:15:38.793Z,56.28
2022-12-19T23:18:09.893Z,51.60
2022-12-19T23:20:41.308Z,56.10
2022-12-19T23:23:12.735Z,57.60
2022-12-19T23:25:47.851Z,58.48
2022-12-19T23:28:18.949Z,55.23
2022-12-19T23:30:50.149Z,51.18
2022-12-19T23:33:21.199Z,49.10
2022-12-19T23:35:52.228Z,49.53
2022-12-19T23:38:23.355Z,48.48
2022-12-19T23:40:54.413Z,61.53
2022-12-19T23:43:25.579Z,54.88
2022-12-19T23:45:56.676Z,48.55
2022-12-19T23:48:31.096Z,50.75
2022-12-19T23:51:03.819Z,46.75
2022-12-19T23:53:35.298Z,46.60
2022-12-19T23:56:14.377Z,50.67
2022-12-19T23:58:46.776Z,47.10
